Time;durP1;ratioP1;P1;durP2;ratioP2;P2;SDS_P1;SDS_P2;PMS_P1;PMS_P2;Temp;Humidity;BMP_temperature;BMP_pressure;BME280_temperature;BME280_humidity;BME280_pressure;Samples;Min_cycle;Max_cycle;Signal;HPM_P1;HPM_P2
2023/08/30 00:00:38;;;;;;;1.10;1.10;;;24.60;67.30;;;;;;4859483;29;20452;-82
2023/08/30 00:03:06;;;;;;;1.70;1.60;;;24.50;67.30;;;;;;4859374;29;20990;-81
2023/08/30 00:05:35;;;;;;;1.20;1.20;;;24.60;67.30;;;;;;4859279;29;20483;-82
2023/08/30 00:08:03;;;;;;;1.27;1.27;;;24.60;67.30;;;;;;4858857;29;20496;-82
2023/08/30 00:10:31;;;;;;;1.60;1.53;;;24.60;67.30;;;;;;4859409;29;20471;-82
2023/08/30 00:13:02;;;;;;;1.47;1.37;;;24.60;67.30;;;;;;4857856;29;20436;-82
2023/08/30 00:15:31;;;;;;;1.77;1.50;;;24.50;67.30;;;;;;4859089;29;20455;-82
2023/08/30 00:17:59;;;;;;;1.57;1.47;;;24.60;67.30;;;;;;4859121;29;20810;-82
2023/08/30 00:20:28;;;;;;;1.30;1.30;;;24.50;67.30;;;;;;4859251;29;20537;-82
2023/08/30 00:22:56;;;;;;;1.13;1.13;;;24.50;67.30;;;;;;4852874;29;20889;-82
2023/08/30 00:25:24;;;;;;;1.30;1.30;;;24.50;67.30;;;;;;4841049;29;20445;-83
2023/08/30 00:27:52;;;;;;;1.37;1.30;;;24.50;67.30;;;;;;4838473;29;20540;-82
2023/08/30 00:30:20;;;;;;;1.33;1.33;;;24.50;67.30;;;;;;4840630;29;20459;-83
2023/08/30 00:32:50;;;;;;;1.60;1.50;;;24.50;67.30;;;;;;4846691;29;20576;-82
2023/08/30 00:35:18;;;;;;;1.30;1.30;;;24.50;67.30;;;;;;4858593;29;20448;-82
2023/08/30 00:37:47;;;;;;;1.50;1.40;;;24.50;67.30;;;;;;4859224;29;20495;-82
2023/08/30 00:40:15;;;;;;;1.80;1.70;;;24.50;67.30;;;;;;4857680;29;20994;-83
2023/08/30 00:42:43;;;;;;;1.43;1.33;;;24.50;67.40;;;;;;4855706;29;20560;-83
2023/08/30 00:45:10;;;;;;;1.50;1.47;;;24.50;67.50;;;;;;4859022;29;20505;-82
2023/08/30 00:47:38;;;;;;;1.50;1.40;;;24.50;67.50;;;;;;4872899;29;20475;-82
2023/08/30 00:50:09;;;;;;;1.83;1.73;;;24.50;67.50;;;;;;4857650;29;20807;-82
2023/08/30 00:52:37;;;;;;;1.50;1.40;;;24.50;67.50;;;;;;4867315;29;20475;-82
2023/08/30 00:55:07;;;;;;;1.63;1.53;;;24.50;67.50;;;;;;4858801;29;20444;-82
2023/08/30 00:57:35;;;;;;;1.67;1.57;;;24.50;67.50;;;;;;4857604;29;20463;-82
2023/08/30 01:00:06;;;;;;;1.33;1.30;;;24.50;67.50;;;;;;4858912;29;20939;-82
2023/08/30 01:02:34;;;;;;;1.30;1.30;;;24.40;67.60;;;;;;4858523;29;20578;-82
2023/08/30 01:05:03;;;;;;;2.03;1.40;;;24.40;67.60;;;;;;4857453;29;20546;-81
2023/08/30 01:07:33;;;;;;;1.50;1.40;;;24.40;67.50;;;;;;4858470;29;20459;-82
2023/08/30 01:10:01;;;;;;;1.53;1.43;;;24.40;67.50;;;;;;4858822;29;20449;-83
2023/08/30 01:12:36;;;;;;;1.70;1.60;;;24.40;67.50;;;;;;4857040;29;20908;-82
2023/08/30 01:15:11;;;;;;;1.40;1.33;;;24.40;67.60;;;;;;4859404;29;20444;-82
2023/08/30 01:17:42;;;;;;;1.40;1.30;;;24.40;67.60;;;;;;4858393;29;20804;-82
2023/08/30 01:20:15;;;;;;;1.50;1.50;;;24.40;67.60;;;;;;4854086;29;20890;-82
2023/08/30 01:22:54;;;;;;;1.30;1.20;;;24.40;67.60;;;;;;4840171;29;20491;-82
2023/08/30 01:25:34;;;;;;;1.50;1.43;;;24.40;67.60;;;;;;4873025;29;20454;-81
2023/08/30 01:28:05;;;;;;;1.77;1.67;;;24.40;67.60;;;;;;4842550;29;20468;-82
2023/08/30 01:30:41;;;;;;;1.80;1.70;;;24.40;67.60;;;;;;4848653;29;20492;-82
2023/08/30 01:33:10;;;;;;;1.30;1.20;;;24.40;67.60;;;;;;4861613;29;20513;-82
2023/08/30 01:35:40;;;;;;;1.67;1.57;;;24.40;67.60;;;;;;4860494;29;20464;-82
2023/08/30 01:38:09;;;;;;;1.60;1.50;;;24.40;67.60;;;;;;4860577;29;20639;-82
2023/08/30 01:40:42;;;;;;;1.50;1.40;;;24.40;67.60;;;;;;4845477;29;20465;-82
2023/08/30 01:43:12;;;;;;;1.17;1.17;;;24.40;67.60;;;;;;4842631;29;20944;-82
2023/08/30 01:45:43;;;;;;;1.63;1.53;;;24.40;67.60;;;;;;4862003;29;20531;-83
2023/08/30 01:48:14;;;;;;;1.50;1.40;;;24.40;67.60;;;;;;4875573;29;20462;-82
2023/08/30 01:50:44;;;;;;;1.40;1.40;;;24.40;67.60;;;;;;4855562;29;20518;-82
2023/08/30 01:53:14;;;;;;;1.60;1.50;;;24.40;67.60;;;;;;4861857;29;20468;-82
2023/08/30 01:55:43;;;;;;;1.70;1.60;;;24.40;67.60;;;;;;4861587;29;20446;-82
2023/08/30 01:58:13;;;;;;;1.83;1.73;;;24.40;67.60;;;;;;4859721;29;20459;-82
2023/08/30 02:00:43;;;;;;;1.67;1.57;;;24.40;67.60;;;;;;4854838;29;20471;-82
2023/08/30 02:03:12;;;;;;;1.60;1.50;;;24.40;67.60;;;;;;4860466;29;20876;-83
2023/08/30 02:05:52;;;;;;;1.30;1.30;;;24.40;67.60;;;;;;4861831;29;20447;-82
2023/08/30 02:08:23;;;;;;;1.93;1.83;;;24.40;67.70;;;;;;4859858;29;20490;-83
2023/08/30 02:10:56;;;;;;;1.90;1.80;;;24.40;67.60;;;;;;4861539;29;20488;-82
2023/08/30 02:13:31;;;;;;;1.80;1.43;;;24.40;67.60;;;;;;4860967;29;20936;-82
2023/08/30 02:16:01;;;;;;;1.20;1.10;;;24.30;67.70;;;;;;4861163;29;20942;-82
2023/08/30 02:18:30;;;;;;;1.70;1.60;;;24.30;67.70;;;;;;4855830;29;20490;-82
2023/08/30 02:21:02;;;;;;;0.97;0.97;;;24.30;67.70;;;;;;4841789;29;20461;-82
2023/08/30 02:23:30;;;;;;;1.80;1.70;;;24.30;67.60;;;;;;4849515;29;21310;-82
2023/08/30 02:25:58;;;;;;;1.50;1.47;;;24.30;67.70;;;;;;4860757;29;20452;-82
2023/08/30 02:28:27;;;;;;;1.60;1.50;;;24.30;67.70;;;;;;4860338;29;20535;-82
2023/08/30 02:30:56;;;;;;;1.20;1.20;;;24.30;67.70;;;;;;4860692;29;20436;-82
2023/08/30 02:33:25;;;;;;;1.93;1.60;;;24.30;67.70;;;;;;4859289;29;20495;-82
2023/08/30 02:35:54;;;;;;;1.10;1.10;;;24.30;67.70;;;;;;4859521;29;21026;-82
2023/08/30 02:38:22;;;;;;;1.60;1.50;;;24.30;67.70;;;;;;4860244;29;20454;-82
2023/08/30 02:40:50;;;;;;;1.20;1.20;;;24.30;67.70;;;;;;4860873;29;20942;-83
2023/08/30 02:43:19;;;;;;;1.40;1.40;;;24.30;67.70;;;;;;4859771;29;20986;-82
2023/08/30 02:45:48;;;;;;;1.87;1.77;;;24.30;67.70;;;;;;4860643;29;20520;-82
2023/08/30 02:48:19;;;;;;;1.37;1.30;;;24.30;67.70;;;;;;4856212;29;20478;-81
2023/08/30 02:50:47;;;;;;;1.80;1.70;;;24.30;67.70;;;;;;4860310;29;20439;-82
2023/08/30 02:53:15;;;;;;;1.83;1.73;;;24.30;67.70;;;;;;4856792;29;21052;-82
2023/08/30 02:55:43;;;;;;;1.60;1.50;;;24.30;67.70;;;;;;4842151;29;20457;-83
2023/08/30 02:58:12;;;;;;;1.80;1.70;;;24.30;67.70;;;;;;4841172;29;20484;-82
2023/08/30 03:00:40;;;;;;;1.90;1.70;;;24.30;67.70;;;;;;4856165;29;20464;-82
2023/08/30 03:03:11;;;;;;;1.87;1.77;;;24.30;67.70;;;;;;4856089;29;20461;-82
2023/08/30 03:05:40;;;;;;;1.70;1.60;;;24.30;67.70;;;;;;4860043;29;20466;-82
2023/08/30 03:08:08;;;;;;;1.90;1.80;;;24.30;67.70;;;;;;4858813;29;20478;-82
2023/08/30 03:10:37;;;;;;;1.80;1.70;;;24.30;67.70;;;;;;4874961;29;20496;-82
2023/08/30 03:13:05;;;;;;;2.20;2.10;;;24.30;67.70;;;;;;4858078;29;20463;-82
2023/08/30 03:15:34;;;;;;;1.90;1.80;;;24.30;67.70;;;;;;4858416;29;20470;-82
2023/08/30 03:18:03;;;;;;;2.30;2.10;;;24.30;67.70;;;;;;4868369;29;20981;-82
2023/08/30 03:20:33;;;;;;;1.83;1.73;;;24.30;67.70;;;;;;4856799;29;20834;-82
2023/08/30 03:23:01;;;;;;;1.80;1.70;;;24.30;67.70;;;;;;4839892;29;20936;-82
2023/08/30 03:25:30;;;;;;;1.80;1.70;;;24.30;67.70;;;;;;4872438;29;20476;-82
2023/08/30 03:28:00;;;;;;;1.63;1.53;;;24.30;67.70;;;;;;4857613;29;20837;-82
2023/08/30 03:30:30;;;;;;;2.33;2.00;;;24.30;67.70;;;;;;4858677;29;20475;-82
2023/08/30 03:32:58;;;;;;;1.90;1.80;;;24.30;67.70;;;;;;4858459;29;20499;-82
2023/08/30 03:35:27;;;;;;;2.17;2.07;;;24.20;67.70;;;;;;4871713;29;20482;-83
2023/08/30 03:37:57;;;;;;;2.17;2.07;;;24.30;67.70;;;;;;4858708;29;20467;-82
2023/08/30 03:40:27;;;;;;;1.93;1.80;;;24.20;67.70;;;;;;4858849;29;20461;-82
2023/08/30 03:42:55;;;;;;;2.37;2.17;;;24.20;67.70;;;;;;4857563;29;20455;-82
2023/08/30 03:45:23;;;;;;;2.20;2.10;;;24.20;67.70;;;;;;4855529;29;20483;-82
2023/08/30 03:47:52;;;;;;;1.80;1.70;;;24.20;67.70;;;;;;4870419;29;20462;-82
2023/08/30 03:50:20;;;;;;;1.90;1.80;;;24.20;67.70;;;;;;4858262;29;21012;-82
2023/08/30 03:52:49;;;;;;;2.07;1.97;;;24.20;67.70;;;;;;4858688;29;20853;-82
2023/08/30 03:55:18;;;;;;;2.20;2.10;;;24.20;67.70;;;;;;4873649;29;20902;-82
2023/08/30 03:57:47;;;;;;;2.00;1.90;;;24.20;67.70;;;;;;4858702;29;20472;-83
2023/08/30 04:00:15;;;;;;;2.40;2.30;;;24.20;67.70;;;;;;4859819;29;20506;-82
2023/08/30 04:02:45;;;;;;;2.03;1.93;;;24.20;67.80;;;;;;4859162;29;20461;-82
2023/08/30 04:05:13;;;;;;;2.40;2.30;;;24.20;67.70;;;;;;4857961;29;20567;-82
2023/08/30 04:07:41;;;;;;;2.43;2.33;;;24.20;67.70;;;;;;4859242;29;20448;-82
2023/08/30 04:10:10;;;;;;;2.10;2.00;;;24.20;67.70;;;;;;4859529;29;20474;-82
2023/08/30 04:12:39;;;;;;;2.47;2.37;;;24.20;67.70;;;;;;4858862;29;20475;-81
2023/08/30 04:15:09;;;;;;;2.87;2.67;;;24.20;67.70;;;;;;4853380;29;20882;-82
2023/08/30 04:17:37;;;;;;;2.97;2.80;;;24.20;67.70;;;;;;4857255;29;20834;-82
2023/08/30 04:20:07;;;;;;;2.43;2.33;;;24.20;67.70;;;;;;4873769;29;20495;-82
2023/08/30 04:22:36;;;;;;;2.63;2.53;;;24.20;67.70;;;;;;4866901;29;20458;-82
2023/08/30 04:25:07;;;;;;;2.30;2.20;;;24.20;67.70;;;;;;4861387;29;20480;-82
2023/08/30 04:27:35;;;;;;;2.40;2.20;;;24.20;67.70;;;;;;4858496;29;20498;-82
2023/08/30 04:30:06;;;;;;;2.47;2.37;;;24.20;67.80;;;;;;4859205;29;20433;-83
2023/08/30 04:32:34;;;;;;;2.07;1.97;;;24.20;67.70;;;;;;4859148;29;20487;-82
2023/08/30 04:35:03;;;;;;;2.47;2.37;;;24.20;67.80;;;;;;4857673;29;20496;-82
2023/08/30 04:37:32;;;;;;;2.77;2.63;;;24.20;67.70;;;;;;4859236;29;20451;-82
2023/08/30 04:40:00;;;;;;;2.33;2.23;;;24.20;67.80;;;;;;4857924;29;20479;-83
2023/08/30 04:42:29;;;;;;;2.40;2.30;;;24.20;67.80;;;;;;4858313;29;21063;-82
2023/08/30 04:45:00;;;;;;;2.33;2.23;;;24.20;67.80;;;;;;4852953;29;20513;-83
2023/08/30 04:47:31;;;;;;;2.73;2.60;;;24.20;67.70;;;;;;4854337;29;20516;-82
2023/08/30 04:50:01;;;;;;;2.77;2.57;;;24.20;67.70;;;;;;4844675;29;20515;-83
2023/08/30 04:52:29;;;;;;;3.17;2.97;;;24.20;67.80;;;;;;4857339;29;21261;-82
2023/08/30 04:54:58;;;;;;;2.73;2.63;;;24.20;67.70;;;;;;4854787;29;20514;-82
2023/08/30 04:57:28;;;;;;;2.17;2.07;;;24.20;67.70;;;;;;4857125;29;20539;-81
2023/08/30 04:59:56;;;;;;;2.57;2.43;;;24.10;67.70;;;;;;4861460;29;20462;-81
2023/08/30 05:02:24;;;;;;;3.47;3.27;;;24.20;67.80;;;;;;4876504;29;20471;-82
2023/08/30 05:05:07;;;;;;;3.10;2.90;;;24.20;67.80;;;;;;4860990;29;20477;-82
2023/08/30 05:07:35;;;;;;;2.50;2.40;;;24.10;67.80;;;;;;4861978;29;20451;-81
2023/08/30 05:10:06;;;;;;;2.80;2.67;;;24.20;67.80;;;;;;4861267;29;20474;-82
2023/08/30 05:12:35;;;;;;;2.87;2.67;;;24.10;67.80;;;;;;4872022;29;20477;-84
2023/08/30 05:15:04;;;;;;;3.20;3.00;;;24.20;67.70;;;;;;4861560;29;20548;-82
2023/08/30 05:17:32;;;;;;;2.30;2.20;;;24.20;67.70;;;;;;4869805;29;20568;-82
2023/08/30 05:20:02;;;;;;;3.00;2.80;;;24.20;67.70;;;;;;4861520;29;20826;-82
2023/08/30 05:22:32;;;;;;;2.90;2.70;;;24.10;67.80;;;;;;4854602;29;20465;-82
2023/08/30 05:25:00;;;;;;;2.70;2.50;;;24.10;67.80;;;;;;4861839;29;20486;-83
2023/08/30 05:27:29;;;;;;;2.80;2.60;;;24.20;67.80;;;;;;4860439;29;20480;-82
2023/08/30 05:29:57;;;;;;;2.50;2.40;;;24.10;67.80;;;;;;4861799;29;20461;-82
2023/08/30 05:32:25;;;;;;;2.57;2.47;;;24.10;67.70;;;;;;4860256;29;20868;-82
2023/08/30 05:35:10;;;;;;;2.50;2.40;;;24.10;67.70;;;;;;4870591;29;20470;-82
2023/08/30 05:38:17;;;;;;;2.63;2.50;;;24.10;67.70;;;;;;4822536;29;20959;-82
2023/08/30 05:41:02;;;;;;;2.53;2.33;;;24.10;67.70;;;;;;4820988;29;20468;-82
2023/08/30 05:43:30;;;;;;;2.63;2.43;;;24.10;67.70;;;;;;4838763;29;20586;-82
2023/08/30 05:46:02;;;;;;;3.23;3.03;;;24.10;67.70;;;;;;4854704;29;20479;-82
2023/08/30 05:48:30;;;;;;;3.00;2.80;;;24.10;67.70;;;;;;4860483;29;20458;-83
2023/08/30 05:50:59;;;;;;;2.70;2.60;;;24.20;67.70;;;;;;4860753;29;20515;-82
2023/08/30 05:53:28;;;;;;;2.83;2.63;;;24.20;67.70;;;;;;4861640;29;20461;-82
2023/08/30 05:55:56;;;;;;;2.60;2.50;;;24.20;67.70;;;;;;4861427;29;20466;-82
2023/08/30 05:58:24;;;;;;;2.73;2.60;;;24.10;67.70;;;;;;4861009;29;20987;-82
2023/08/30 06:00:53;;;;;;;2.27;2.17;;;24.20;67.60;;;;;;4856272;29;20507;-82
2023/08/30 06:03:21;;;;;;;2.73;2.53;;;24.20;67.60;;;;;;4861093;29;20525;-82
2023/08/30 06:05:49;;;;;;;2.70;2.60;;;24.20;67.60;;;;;;4861605;29;20486;-82
2023/08/30 06:08:18;;;;;;;2.67;2.47;;;24.20;67.70;;;;;;4861341;29;20445;-82
2023/08/30 06:10:47;;;;;;;2.73;2.60;;;24.20;67.60;;;;;;4852362;29;20464;-82
2023/08/30 06:13:15;;;;;;;2.53;2.43;;;24.20;67.60;;;;;;4842190;29;20951;-82
2023/08/30 06:15:44;;;;;;;2.77;2.57;;;24.20;67.60;;;;;;4858797;29;20462;-82
2023/08/30 06:18:12;;;;;;;2.57;2.37;;;24.20;67.60;;;;;;4860944;29;20452;-82
2023/08/30 06:20:42;;;;;;;2.47;2.37;;;24.20;67.60;;;;;;4861158;29;20452;-83
2023/08/30 06:23:11;;;;;;;3.10;2.90;;;24.20;67.50;;;;;;4852781;29;20471;-83
2023/08/30 06:25:39;;;;;;;3.80;3.60;;;24.20;67.50;;;;;;4859313;29;20486;-82
2023/08/30 06:28:08;;;;;;;2.97;2.80;;;24.20;67.60;;;;;;4855515;29;20474;-82
2023/08/30 06:30:37;;;;;;;2.50;2.40;;;24.20;67.50;;;;;;4861070;29;20451;-81
2023/08/30 06:33:05;;;;;;;2.80;2.60;;;24.20;67.50;;;;;;4860343;29;20491;-83
2023/08/30 06:35:38;;;;;;;2.50;2.37;;;24.20;67.50;;;;;;4859872;29;20467;-83
2023/08/30 06:38:07;;;;;;;2.70;2.60;;;24.20;67.50;;;;;;4860412;29;20910;-82
2023/08/30 06:40:36;;;;;;;3.00;2.80;;;24.20;67.50;;;;;;4854537;29;20806;-82
2023/08/30 06:43:04;;;;;;;3.20;3.00;;;24.20;67.50;;;;;;4860360;29;20511;-83
2023/08/30 06:45:34;;;;;;;2.80;2.60;;;24.20;67.50;;;;;;4860296;29;20477;-83
2023/08/30 06:48:02;;;;;;;3.13;2.93;;;24.20;67.50;;;;;;4860456;29;20550;-82
2023/08/30 06:50:31;;;;;;;3.17;2.97;;;24.20;67.50;;;;;;4858531;29;20440;-84
2023/08/30 06:52:59;;;;;;;2.90;2.70;;;24.20;67.50;;;;;;4850199;29;20876;-82
2023/08/30 06:55:27;;;;;;;3.10;2.90;;;24.20;67.50;;;;;;4852374;29;20967;-82
2023/08/30 06:57:56;;;;;;;3.03;2.83;;;24.20;67.50;;;;;;4841055;29;20469;-82
2023/08/30 07:00:24;;;;;;;3.67;3.33;;;24.20;67.50;;;;;;4858396;29;20474;-83
2023/08/30 07:02:54;;;;;;;2.73;2.53;;;24.20;67.50;;;;;;4860657;29;20992;-82
2023/08/30 07:05:23;;;;;;;3.07;2.87;;;24.20;67.50;;;;;;4858953;29;20469;-82
2023/08/30 07:07:51;;;;;;;3.20;3.00;;;24.20;67.50;;;;;;4854118;29;20473;-82
2023/08/30 07:10:19;;;;;;;2.43;2.27;;;24.20;67.50;;;;;;4860092;29;20555;-83
2023/08/30 07:12:48;;;;;;;2.10;2.00;;;24.20;67.50;;;;;;4859217;29;20436;-82
2023/08/30 07:15:17;;;;;;;2.30;2.20;;;24.20;67.50;;;;;;4859917;29;20523;-82
2023/08/30 07:17:45;;;;;;;2.90;2.70;;;24.20;67.40;;;;;;4860373;29;20442;-82
2023/08/30 07:20:23;;;;;;;2.73;2.53;;;24.20;67.40;;;;;;4859640;29;20436;-82
2023/08/30 07:22:51;;;;;;;2.13;2.03;;;24.20;67.40;;;;;;4859954;29;20469;-83
2023/08/30 07:25:19;;;;;;;2.37;2.27;;;24.20;67.40;;;;;;4859801;29;20453;-82
2023/08/30 07:27:47;;;;;;;2.80;2.60;;;24.20;67.40;;;;;;4858997;29;20439;-82
2023/08/30 07:30:15;;;;;;;3.07;2.87;;;24.20;67.40;;;;;;4860318;29;20450;-82
2023/08/30 07:32:44;;;;;;;2.30;2.20;;;24.20;67.40;;;;;;4859420;29;20541;-82
2023/08/30 07:35:12;;;;;;;2.90;2.70;;;24.20;67.40;;;;;;4859965;29;20453;-82
2023/08/30 07:37:44;;;;;;;2.10;2.00;;;24.20;67.40;;;;;;4854340;29;21034;-82
2023/08/30 07:40:12;;;;;;;2.37;2.27;;;24.20;67.40;;;;;;4859780;29;20837;-82
2023/08/30 07:42:40;;;;;;;2.57;2.37;;;24.20;67.40;;;;;;4858879;29;20483;-82
2023/08/30 07:45:10;;;;;;;2.50;2.40;;;24.20;67.40;;;;;;4859693;29;20537;-83
2023/08/30 07:47:38;;;;;;;2.90;2.70;;;24.20;67.30;;;;;;4859493;29;20479;-82
2023/08/30 07:50:08;;;;;;;2.40;2.20;;;24.20;67.30;;;;;;4859678;29;20443;-83
2023/08/30 07:52:36;;;;;;;2.23;2.13;;;24.20;67.30;;;;;;4859250;29;20435;-82
2023/08/30 07:55:14;;;;;;;3.30;3.00;;;24.20;67.30;;;;;;4859621;29;20863;-82
2023/08/30 07:57:43;;;;;;;2.73;2.63;;;24.20;67.30;;;;;;4858453;29;20523;-82
2023/08/30 08:00:12;;;;;;;2.43;2.23;;;24.20;67.30;;;;;;4858496;29;20487;-82
2023/08/30 08:02:43;;;;;;;2.43;2.33;;;24.20;67.30;;;;;;4859157;29;20466;-82
2023/08/30 08:05:12;;;;;;;2.93;2.73;;;24.30;67.30;;;;;;4857862;29;20509;-82
2023/08/30 08:07:40;;;;;;;2.80;2.60;;;24.30;67.20;;;;;;4866114;29;20881;-82
2023/08/30 08:10:09;;;;;;;2.63;2.53;;;24.30;67.20;;;;;;4840868;29;20448;-84
2023/08/30 08:12:39;;;;;;;2.60;2.50;;;24.30;67.20;;;;;;4840198;29;20928;-82
2023/08/30 08:15:08;;;;;;;2.50;2.30;;;24.30;67.20;;;;;;4850601;29;20445;-82
2023/08/30 08:17:36;;;;;;;2.33;2.23;;;24.30;67.10;;;;;;4858743;29;20493;-82
2023/08/30 08:20:06;;;;;;;2.30;2.20;;;24.30;67.10;;;;;;4859197;29;20448;-82
2023/08/30 08:22:34;;;;;;;2.73;2.53;;;24.30;67.10;;;;;;4857233;29;20461;-82
2023/08/30 08:25:03;;;;;;;2.40;2.23;;;24.40;67.10;;;;;;4859124;29;20445;-84
2023/08/30 08:27:31;;;;;;;2.50;2.40;;;24.40;67.00;;;;;;4858467;29;21150;-82
2023/08/30 08:30:02;;;;;;;3.20;3.00;;;24.40;67.00;;;;;;4859153;29;20448;-83
2023/08/30 08:32:31;;;;;;;2.50;2.40;;;24.40;67.00;;;;;;4874138;29;20505;-83
2023/08/30 08:34:59;;;;;;;2.87;2.70;;;24.40;67.10;;;;;;4860583;29;20491;-82
2023/08/30 08:37:27;;;;;;;2.73;2.57;;;24.40;67.00;;;;;;4863947;29;20470;-82
2023/08/30 08:39:55;;;;;;;2.70;2.50;;;24.40;67.00;;;;;;4858366;29;20493;-82
2023/08/30 08:42:24;;;;;;;2.60;2.40;;;24.40;66.90;;;;;;4864224;29;20444;-82
2023/08/30 08:44:54;;;;;;;3.47;3.27;;;24.40;66.90;;;;;;4864807;29;20449;-83
2023/08/30 08:47:24;;;;;;;2.60;2.50;;;24.40;66.90;;;;;;4865222;29;20481;-82
2023/08/30 08:49:52;;;;;;;2.60;2.40;;;24.40;66.90;;;;;;4864273;29;20470;-82
2023/08/30 08:52:21;;;;;;;3.00;2.80;;;24.40;66.90;;;;;;4863585;29;20535;-82
2023/08/30 08:55:00;;;;;;;2.63;2.53;;;24.40;66.90;;;;;;4865441;29;20469;-83
2023/08/30 08:57:31;;;;;;;2.60;2.40;;;24.50;66.90;;;;;;4863136;29;20463;-83
2023/08/30 08:59:59;;;;;;;3.20;3.00;;;24.50;66.90;;;;;;4864121;29;20494;-83
2023/08/30 09:02:29;;;;;;;2.90;2.70;;;24.50;66.80;;;;;;4858981;29;20968;-82
2023/08/30 09:04:59;;;;;;;2.67;2.47;;;24.50;66.70;;;;;;4859934;29;20479;-82
2023/08/30 09:07:29;;;;;;;2.63;2.43;;;24.50;66.60;;;;;;4865154;29;20991;-83
2023/08/30 09:09:58;;;;;;;2.30;2.20;;;24.50;66.60;;;;;;4864474;29;20491;-82
2023/08/30 09:12:27;;;;;;;2.20;2.10;;;24.50;66.70;;;;;;4864162;29;20449;-82
2023/08/30 09:14:56;;;;;;;1.97;1.87;;;24.50;66.60;;;;;;4865099;29;20495;-82
2023/08/30 09:17:35;;;;;;;2.60;2.50;;;24.50;66.60;;;;;;4864763;29;20448;-82
2023/08/30 09:20:13;;;;;;;2.23;2.13;;;24.50;66.60;;;;;;4864779;29;20433;-82
2023/08/30 09:22:42;;;;;;;2.33;2.13;;;24.50;66.60;;;;;;4864790;29;20452;-82
2023/08/30 09:25:11;;;;;;;2.60;2.50;;;24.50;66.50;;;;;;4864797;29;20464;-83
2023/08/30 09:27:41;;;;;;;2.43;2.30;;;24.50;66.50;;;;;;4863974;29;20491;-82
2023/08/30 09:30:10;;;;;;;2.80;2.63;;;24.60;66.60;;;;;;4864651;29;20449;-83
2023/08/30 09:32:42;;;;;;;2.40;2.20;;;24.60;66.50;;;;;;4864599;29;20487;-82
2023/08/30 09:35:12;;;;;;;3.00;2.80;;;24.60;66.50;;;;;;4868905;29;20911;-83
2023/08/30 09:37:40;;;;;;;2.97;2.80;;;24.60;66.60;;;;;;4864709;29;20541;-83
2023/08/30 09:40:09;;;;;;;2.43;2.33;;;24.60;66.50;;;;;;4863617;29;20452;-82
2023/08/30 09:42:42;;;;;;;2.60;2.50;;;24.60;66.50;;;;;;4863616;29;20448;-82
2023/08/30 09:45:19;;;;;;;2.33;2.20;;;24.60;66.60;;;;;;4863135;29;20985;-83
2023/08/30 09:47:51;;;;;;;2.20;2.10;;;24.60;66.50;;;;;;4861313;29;20484;-83
2023/08/30 09:50:21;;;;;;;2.67;2.57;;;24.60;66.40;;;;;;4861717;29;20455;-82
2023/08/30 09:52:50;;;;;;;3.40;3.20;;;24.60;66.50;;;;;;4861853;29;20497;-83
2023/08/30 09:55:21;;;;;;;2.13;2.00;;;24.60;66.40;;;;;;4854685;29;20474;-83
2023/08/30 09:57:50;;;;;;;2.77;2.60;;;24.60;66.40;;;;;;4860843;29;20489;-83
2023/08/30 10:00:18;;;;;;;2.70;2.60;;;24.60;66.60;;;;;;4860732;29;20894;-82
2023/08/30 10:02:47;;;;;;;2.43;2.30;;;24.60;66.60;;;;;;4854679;29;20959;-83
2023/08/30 10:05:37;;;;;;;2.70;2.50;;;24.70;66.60;;;;;;4854826;29;20453;-83
2023/08/30 10:08:08;;;;;;;2.50;2.40;;;24.70;66.40;;;;;;4861324;29;20469;-83
2023/08/30 10:10:38;;;;;;;2.67;2.47;;;24.80;66.20;;;;;;4861198;29;20447;-82
2023/08/30 10:13:07;;;;;;;2.20;2.10;;;24.80;66.30;;;;;;4860627;29;20925;-83
2023/08/30 10:15:44;;;;;;;2.00;1.90;;;24.80;66.10;;;;;;4861810;29;20957;-82
2023/08/30 10:18:16;;;;;;;3.00;2.80;;;24.80;66.30;;;;;;4857963;29;20437;-83
2023/08/30 10:20:47;;;;;;;2.33;2.23;;;24.80;66.40;;;;;;4858926;29;20452;-83
2023/08/30 10:23:17;;;;;;;2.47;2.33;;;24.80;66.30;;;;;;4855122;29;20493;-82
2023/08/30 10:25:46;;;;;;;2.60;2.50;;;24.80;66.20;;;;;;4860749;29;20864;-83
2023/08/30 10:28:18;;;;;;;3.00;2.83;;;24.80;66.10;;;;;;4860324;29;20480;-83
2023/08/30 10:30:46;;;;;;;2.50;2.40;;;24.80;66.20;;;;;;4858738;29;20492;-83
2023/08/30 10:33:16;;;;;;;2.30;2.20;;;24.80;66.20;;;;;;4858111;29;20505;-83
2023/08/30 10:35:52;;;;;;;2.40;2.30;;;24.80;66.30;;;;;;4855416;29;20476;-82
2023/08/30 10:38:30;;;;;;;2.57;2.47;;;24.90;66.00;;;;;;4860359;29;20449;-84
2023/08/30 10:41:08;;;;;;;1.93;1.83;;;24.90;66.10;;;;;;4853569;29;20469;-82
2023/08/30 10:43:37;;;;;;;2.30;2.20;;;24.90;65.90;;;;;;4860170;29;21010;-82
2023/08/30 10:46:07;;;;;;;2.30;2.20;;;24.90;65.90;;;;;;4860024;29;20939;-82
2023/08/30 10:48:37;;;;;;;2.20;2.10;;;24.90;66.00;;;;;;4860269;29;20481;-82
2023/08/30 10:51:17;;;;;;;2.00;1.90;;;24.90;66.10;;;;;;4860729;29;20441;-82
2023/08/30 10:53:55;;;;;;;1.93;1.83;;;24.90;65.80;;;;;;4859351;29;20448;-82
2023/08/30 10:56:28;;;;;;;2.00;1.90;;;24.90;65.80;;;;;;4860342;29;20452;-82
2023/08/30 10:58:57;;;;;;;2.53;2.40;;;24.90;65.70;;;;;;4860030;29;20922;-82
2023/08/30 11:01:25;;;;;;;2.43;2.33;;;24.90;65.80;;;;;;4857613;29;20469;-82
2023/08/30 11:03:55;;;;;;;2.23;2.13;;;24.90;65.70;;;;;;4859912;29;20455;-82
2023/08/30 11:06:44;;;;;;;2.10;2.00;;;24.90;65.80;;;;;;4851405;29;20867;-83
2023/08/30 11:09:17;;;;;;;1.90;1.80;;;24.90;65.70;;;;;;4859868;29;20479;-82
2023/08/30 11:11:46;;;;;;;2.37;2.17;;;24.90;65.80;;;;;;4860646;29;20446;-82
2023/08/30 11:14:15;;;;;;;2.20;2.10;;;24.90;65.80;;;;;;4858603;29;20802;-82
2023/08/30 11:16:44;;;;;;;2.03;1.93;;;24.90;65.70;;;;;;4860253;29;20440;-83
2023/08/30 11:19:12;;;;;;;2.10;2.00;;;24.90;65.70;;;;;;4859952;29;20436;-82
2023/08/30 11:21:45;;;;;;;2.10;2.00;;;25.00;65.60;;;;;;4860591;29;20850;-83
2023/08/30 11:24:13;;;;;;;2.00;1.90;;;25.00;65.60;;;;;;4841345;29;20797;-83
2023/08/30 11:26:41;;;;;;;1.70;1.60;;;25.00;65.50;;;;;;4859998;29;20968;-83
2023/08/30 11:29:10;;;;;;;2.00;1.90;;;25.10;65.40;;;;;;4853964;29;20519;-82
2023/08/30 11:31:38;;;;;;;1.83;1.73;;;25.30;65.20;;;;;;4859731;29;20559;-82
2023/08/30 11:34:06;;;;;;;2.07;1.97;;;25.40;64.90;;;;;;4859441;29;20431;-85
2023/08/30 11:36:37;;;;;;;1.87;1.77;;;25.60;64.40;;;;;;4854964;29;21036;-82
2023/08/30 11:39:08;;;;;;;1.93;1.83;;;25.70;64.20;;;;;;4859576;29;20433;-82
2023/08/30 11:41:39;;;;;;;1.70;1.60;;;25.70;64.00;;;;;;4859896;29;20452;-85
2023/08/30 11:44:09;;;;;;;1.73;1.63;;;25.80;63.80;;;;;;4859660;29;20444;-82
2023/08/30 11:46:37;;;;;;;1.67;1.57;;;25.90;63.60;;;;;;4859642;29;20531;-83
2023/08/30 11:49:06;;;;;;;2.20;2.10;;;25.90;63.50;;;;;;4859543;29;20526;-82
2023/08/30 11:51:35;;;;;;;1.90;1.80;;;25.80;63.50;;;;;;4859495;29;20444;-83
2023/08/30 11:54:04;;;;;;;1.90;1.80;;;25.70;63.80;;;;;;4859043;29;20522;-83
2023/08/30 11:56:35;;;;;;;1.40;1.40;;;25.80;63.80;;;;;;4859839;29;20475;-83
2023/08/30 11:59:04;;;;;;;1.83;1.73;;;25.80;63.70;;;;;;4852626;29;20842;-83
2023/08/30 12:01:34;;;;;;;1.70;1.60;;;25.90;63.60;;;;;;4859436;29;20446;-82
2023/08/30 12:04:10;;;;;;;2.03;1.93;;;25.90;63.50;;;;;;4859302;29;20519;-84
2023/08/30 12:06:39;;;;;;;2.00;1.90;;;25.90;63.50;;;;;;4859129;29;20447;-83
2023/08/30 12:09:12;;;;;;;1.90;1.80;;;26.00;63.40;;;;;;4852400;29;20969;-83
2023/08/30 12:11:42;;;;;;;2.07;1.97;;;25.90;63.30;;;;;;4843963;29;20915;-84
2023/08/30 12:14:10;;;;;;;2.27;2.13;;;25.80;63.40;;;;;;4847616;29;20472;-83
2023/08/30 12:16:40;;;;;;;1.93;1.83;;;25.60;63.70;;;;;;4856214;29;20444;-83
2023/08/30 12:19:10;;;;;;;1.87;1.77;;;25.50;64.10;;;;;;4856538;29;20963;-82
2023/08/30 12:21:42;;;;;;;1.90;1.80;;;25.40;64.40;;;;;;4873288;29;20468;-82
2023/08/30 12:24:11;;;;;;;1.20;1.20;;;25.30;64.60;;;;;;4858896;29;20539;-83
2023/08/30 12:26:39;;;;;;;1.53;1.43;;;25.20;64.80;;;;;;4853890;29;20496;-82
2023/08/30 12:29:09;;;;;;;1.77;1.67;;;25.10;65.00;;;;;;4839909;29;20483;-82
2023/08/30 12:31:37;;;;;;;1.70;1.60;;;25.10;65.10;;;;;;4840493;29;20516;-82
2023/08/30 12:34:05;;;;;;;2.90;1.60;;;25.00;65.30;;;;;;4840546;29;20448;-82
2023/08/30 12:36:34;;;;;;;1.80;1.70;;;25.00;65.40;;;;;;4857751;29;20448;-83
2023/08/30 12:39:02;;;;;;;1.83;1.73;;;25.00;65.40;;;;;;4858627;29;20497;-83
2023/08/30 12:41:31;;;;;;;1.70;1.60;;;25.00;65.40;;;;;;4859669;29;20459;-83
2023/08/30 12:43:59;;;;;;;1.73;1.63;;;25.00;65.40;;;;;;4858172;29;20937;-82
2023/08/30 12:46:29;;;;;;;1.80;1.70;;;25.00;65.40;;;;;;4858965;29;20847;-82
2023/08/30 12:48:57;;;;;;;1.83;1.73;;;25.00;65.40;;;;;;4857521;29;20571;-83
2023/08/30 12:51:26;;;;;;;1.87;1.77;;;25.00;65.40;;;;;;4858453;29;20952;-82
2023/08/30 12:53:55;;;;;;;2.10;2.00;;;25.00;65.40;;;;;;4858908;29;20442;-82
2023/08/30 12:56:23;;;;;;;1.53;1.50;;;25.00;65.40;;;;;;4853306;29;20887;-83
2023/08/30 12:58:52;;;;;;;1.77;1.67;;;24.90;65.50;;;;;;4858460;29;21322;-83
2023/08/30 13:01:20;;;;;;;1.60;1.57;;;24.90;65.50;;;;;;4859223;29;20459;-82